createdAt,value
2017-12-20T00:00:29.578Z,11.35
2017-12-20T00:01:03.244Z,13.40
2017-12-20T00:01:37.703Z,13.75
2017-12-20T00:02:11.389Z,13.85
2017-12-20T00:02:45.069Z,13.75
2017-12-20T00:03:18.566Z,13.43
2017-12-20T00:03:52.241Z,15.60
2017-12-20T00:04:25.900Z,11.68
2017-12-20T00:04:59.570Z,17.62
2017-12-20T00:05:34.071Z,14.07
2017-12-20T00:06:07.728Z,10.52
2017-12-20T00:06:41.403Z,13.23
2017-12-20T00:07:15.076Z,10.38
2017-12-20T00:07:49.034Z,8.52
2017-12-20T00:08:22.695Z,9.95
2017-12-20T00:08:56.367Z,16.17
2017-12-20T00:09:30.032Z,13.90
2017-12-20T00:10:03.687Z,10.13
2017-12-20T00:10:37.334Z,9.73
2017-12-20T00:11:10.994Z,11.30
2017-12-20T00:11:45.418Z,11.02
2017-12-20T00:12:19.076Z,12.95
2017-12-20T00:12:53.547Z,13.40
2017-12-20T00:13:27.210Z,8.73
2017-12-20T00:14:01.308Z,12.63
2017-12-20T00:14:34.967Z,14.25
2017-12-20T00:15:09.402Z,9.15
2017-12-20T00:15:43.053Z,11.43
2017-12-20T00:16:16.763Z,12.52
2017-12-20T00:16:51.189Z,11.90
2017-12-20T00:17:24.853Z,12.37
2017-12-20T00:17:59.290Z,10.90
2017-12-20T00:18:32.956Z,9.95
2017-12-20T00:19:07.392Z,10.35
2017-12-20T00:19:41.064Z,12.18
2017-12-20T00:20:14.724Z,12.95
2017-12-20T00:20:48.382Z,13.02
2017-12-20T00:21:22.050Z,12.13
2017-12-20T00:21:55.721Z,11.95
2017-12-20T00:22:29.380Z,11.80
2017-12-20T00:23:03.056Z,11.12
2017-12-20T00:23:36.717Z,11.90
2017-12-20T00:24:10.380Z,11.75
2017-12-20T00:24:44.027Z,9.70
2017-12-20T00:25:17.714Z,10.60
2017-12-20T00:25:51.375Z,11.52
2017-12-20T00:26:25.074Z,13.68
2017-12-20T00:26:58.737Z,10.52
2017-12-20T00:27:32.065Z,12.23
2017-12-20T00:28:05.737Z,18.87
2017-12-20T00:28:39.456Z,10.18
2017-12-20T00:29:13.230Z,11.10
2017-12-20T00:29:46.885Z,9.75
2017-12-20T00:30:20.589Z,11.05
2017-12-20T00:30:54.239Z,10.48
2017-12-20T00:31:27.923Z,10.70
2017-12-20T00:32:02.361Z,13.27
2017-12-20T00:32:36.010Z,10.18
2017-12-20T00:33:10.536Z,13.20
2017-12-20T00:33:44.192Z,10.82
2017-12-20T00:34:17.847Z,14.00
2017-12-20T00:34:51.518Z,14.52
2017-12-20T00:35:25.163Z,9.02
2017-12-20T00:35:58.825Z,11.50
2017-12-20T00:36:32.474Z,8.88
2017-12-20T00:37:06.152Z,13.57
2017-12-20T00:37:39.841Z,10.85
2017-12-20T00:38:13.533Z,13.65
2017-12-20T00:38:47.966Z,9.88
2017-12-20T00:39:21.631Z,11.80
2017-12-20T00:39:56.056Z,9.95
2017-12-20T00:40:29.714Z,11.02
2017-12-20T00:41:04.158Z,12.90
2017-12-20T00:41:37.818Z,12.07
2017-12-20T00:42:12.253Z,14.98
2017-12-20T00:42:45.920Z,13.02
2017-12-20T00:43:20.366Z,9.93
2017-12-20T00:43:54.016Z,9.57
2017-12-20T00:44:27.666Z,9.48
2017-12-20T00:45:01.309Z,11.57
2017-12-20T00:45:34.979Z,10.02
2017-12-20T00:46:09.458Z,12.95
2017-12-20T00:46:43.123Z,11.93
2017-12-20T00:47:16.778Z,9.85
2017-12-20T00:47:51.195Z,10.95
2017-12-20T00:48:24.884Z,11.55
2017-12-20T00:48:58.542Z,11.50
2017-12-20T00:49:32.981Z,11.93
2017-12-20T00:50:06.643Z,10.15
2017-12-20T00:50:41.094Z,11.20
2017-12-20T00:51:14.787Z,10.27
2017-12-20T00:51:48.442Z,12.48
2017-12-20T00:52:22.104Z,15.02
2017-12-20T00:52:55.815Z,11.10
2017-12-20T00:53:30.303Z,12.82
2017-12-20T00:54:03.962Z,12.00
2017-12-20T00:54:37.666Z,10.30
2017-12-20T00:55:11.320Z,10.23
2017-12-20T00:55:44.990Z,10.70
2017-12-20T00:56:19.201Z,10.82
2017-12-20T00:56:52.863Z,12.95
2017-12-20T00:57:27.342Z,12.52
2017-12-20T00:58:01.116Z,12.52
2017-12-20T00:58:34.806Z,10.55
2017-12-20T00:59:08.459Z,10.77
2017-12-20T00:59:42.897Z,12.27
2017-12-20T01:00:16.623Z,10.93
2017-12-20T01:00:53.058Z,10.90
2017-12-20T01:01:26.723Z,12.02
2017-12-20T01:02:00.433Z,9.85
2017-12-20T01:02:34.105Z,11.20
2017-12-20T01:03:07.765Z,12.80
2017-12-20T01:03:42.229Z,9.73
2017-12-20T01:04:15.598Z,12.37
2017-12-20T01:04:50.167Z,11.02
2017-12-20T01:05:23.503Z,11.60
2017-12-20T01:05:56.913Z,11.55
2017-12-20T01:06:30.575Z,11.32
2017-12-20T01:07:03.919Z,10.45
2017-12-20T01:07:36.907Z,11.18
2017-12-20T01:08:10.592Z,16.33
2017-12-20T01:08:44.301Z,8.88
2017-12-20T01:09:17.976Z,9.85
2017-12-20T01:09:51.626Z,11.60
2017-12-20T01:10:26.121Z,10.50
2017-12-20T01:10:59.479Z,10.75
2017-12-20T01:11:33.125Z,8.82
2017-12-20T01:12:06.803Z,10.95
2017-12-20T01:12:41.222Z,10.40
2017-12-20T01:13:14.902Z,12.90
2017-12-20T01:13:49.394Z,10.73
2017-12-20T01:14:23.811Z,11.90
2017-12-20T01:14:58.251Z,10.55
2017-12-20T01:15:31.926Z,10.80
2017-12-20T01:16:05.593Z,10.88
2017-12-20T01:16:40.100Z,8.68
2017-12-20T01:17:13.787Z,8.35
2017-12-20T01:17:48.250Z,12.98
2017-12-20T01:18:21.921Z,10.65
2017-12-20T01:18:55.654Z,10.90
2017-12-20T01:19:29.307Z,15.00
2017-12-20T01:20:02.969Z,9.20
2017-12-20T01:20:37.401Z,14.07
2017-12-20T01:21:11.107Z,13.43
2017-12-20T01:21:45.687Z,11.68
2017-12-20T01:22:19.366Z,11.25
2017-12-20T01:22:53.027Z,10.50
2017-12-20T01:23:26.669Z,10.13
2017-12-20T01:24:00.342Z,9.82
2017-12-20T01:24:33.991Z,12.23
2017-12-20T01:25:07.709Z,15.65
2017-12-20T01:25:42.133Z,12.27
2017-12-20T01:26:15.801Z,18.27
2017-12-20T01:26:50.219Z,13.05
2017-12-20T01:27:24.658Z,14.07
2017-12-20T01:27:58.312Z,13.70
2017-12-20T01:28:31.978Z,14.98
2017-12-20T01:29:05.741Z,13.65
2017-12-20T01:29:39.402Z,12.88
2017-12-20T01:30:13.061Z,14.15
2017-12-20T01:30:47.486Z,13.93
2017-12-20T01:31:21.148Z,12.07
2017-12-20T01:31:55.570Z,14.77
2017-12-20T01:32:29.994Z,14.32
2017-12-20T01:33:03.675Z,13.38
2017-12-20T01:33:38.103Z,12.05
2017-12-20T01:34:11.805Z,12.35
2017-12-20T01:34:45.468Z,11.60
2017-12-20T01:35:19.130Z,12.35
2017-12-20T01:35:53.550Z,13.15
2017-12-20T01:36:27.991Z,14.68
2017-12-20T01:37:03.112Z,15.75
2017-12-20T01:37:36.770Z,13.02
2017-12-20T01:38:11.191Z,12.52
2017-12-20T01:38:44.862Z,14.55
2017-12-20T01:39:19.325Z,12.57
2017-12-20T01:39:52.996Z,15.80
2017-12-20T01:40:26.310Z,13.80
2017-12-20T01:40:59.313Z,12.88
2017-12-20T01:41:33.278Z,12.15
2017-12-20T01:42:06.293Z,15.93
2017-12-20T01:42:40.067Z,15.80
2017-12-20T01:43:13.836Z,13.43
2017-12-20T01:43:47.611Z,16.00
2017-12-20T01:44:21.327Z,15.30
2017-12-20T01:44:55.011Z,15.63
2017-12-20T01:45:29.446Z,14.00
2017-12-20T01:46:03.551Z,16.17
2017-12-20T01:46:38.043Z,16.80
2017-12-20T01:47:12.512Z,12.55
2017-12-20T01:47:46.202Z,14.40
2017-12-20T01:48:19.846Z,13.10
2017-12-20T01:48:54.270Z,16.65
2017-12-20T01:49:27.956Z,15.13
2017-12-20T01:50:01.641Z,15.35
2017-12-20T01:50:35.326Z,17.60
2017-12-20T01:51:09.009Z,16.35
2017-12-20T01:51:43.456Z,15.93
2017-12-20T01:52:17.196Z,13.68
2017-12-20T01:52:51.655Z,16.10
2017-12-20T01:53:25.317Z,14.18
2017-12-20T01:53:59.059Z,18.83
2017-12-20T01:54:32.775Z,16.77
2017-12-20T01:55:07.207Z,15.13
2017-12-20T01:55:40.218Z,16.55
2017-12-20T01:56:13.553Z,15.23
2017-12-20T01:56:47.311Z,17.85
2017-12-20T01:57:20.678Z,14.45
2017-12-20T01:57:53.675Z,17.33
2017-12-20T01:58:27.476Z,20.27
2017-12-20T01:59:01.253Z,16.48
2017-12-20T01:59:34.946Z,14.95
2017-12-20T02:00:08.620Z,18.48
2017-12-20T02:00:42.368Z,16.20
2017-12-20T02:01:16.043Z,16.30
2017-12-20T02:01:49.722Z,16.65
2017-12-20T02:02:23.826Z,21.40
2017-12-20T02:02:58.272Z,17.37
2017-12-20T02:03:31.757Z,15.48
2017-12-20T02:04:05.435Z,15.40
2017-12-20T02:04:39.134Z,20.25
2017-12-20T02:05:12.802Z,15.40
2017-12-20T02:05:46.486Z,14.52
2017-12-20T02:06:20.159Z,16.08
2017-12-20T02:06:54.614Z,15.93
2017-12-20T02:07:28.276Z,16.67
2017-12-20T02:08:01.951Z,17.02
2017-12-20T02:08:36.393Z,14.10
2017-12-20T02:09:10.069Z,19.35
2017-12-20T02:09:43.771Z,24.52
2017-12-20T02:10:17.439Z,17.23
2017-12-20T02:10:51.143Z,17.85
2017-12-20T02:11:24.942Z,15.73
2017-12-20T02:11:58.631Z,18.37
2017-12-20T02:12:31.638Z,16.08
2017-12-20T02:13:05.325Z,16.98
2017-12-20T02:13:38.998Z,15.40
2017-12-20T02:14:12.330Z,17.98
2017-12-20T02:14:46.803Z,18.98
2017-12-20T02:15:20.147Z,16.23
2017-12-20T02:15:53.811Z,21.12
2017-12-20T02:16:28.241Z,19.33
2017-12-20T02:17:01.909Z,16.73
2017-12-20T02:17:36.012Z,18.35
2017-12-20T02:18:10.454Z,14.70
2017-12-20T02:18:44.115Z,14.82
2017-12-20T02:19:17.114Z,21.15
2017-12-20T02:19:50.152Z,17.23
2017-12-20T02:20:23.919Z,16.75
2017-12-20T02:20:57.269Z,16.62
2017-12-20T02:21:30.270Z,17.23
2017-12-20T02:22:03.288Z,19.30
2017-12-20T02:22:36.300Z,14.57
2017-12-20T02:23:09.626Z,17.90
2017-12-20T02:23:43.619Z,22.10
2017-12-20T02:24:18.474Z,15.27
2017-12-20T02:24:51.843Z,16.33
2017-12-20T02:25:24.852Z,19.52
2017-12-20T02:25:57.846Z,19.05
2017-12-20T02:26:30.906Z,20.35
2017-12-20T02:27:03.907Z,17.25
2017-12-20T02:27:36.912Z,20.42
2017-12-20T02:28:09.917Z,17.85
2017-12-20T02:28:43.294Z,16.08
2017-12-20T02:29:16.627Z,19.75
2017-12-20T02:29:50.394Z,16.30
2017-12-20T02:30:23.768Z,20.80
2017-12-20T02:30:56.815Z,15.45
2017-12-20T02:31:29.824Z,22.55
2017-12-20T02:32:03.012Z,18.33
2017-12-20T02:32:36.035Z,19.33
2017-12-20T02:33:20.846Z,15.45
2017-12-20T02:33:53.859Z,18.73
2017-12-20T02:34:27.204Z,20.58
2017-12-20T02:35:00.259Z,19.45
2017-12-20T02:35:33.276Z,19.00
2017-12-20T02:36:06.278Z,19.20
2017-12-20T02:36:39.281Z,20.70
2017-12-20T02:37:12.293Z,21.58
2017-12-20T02:37:46.063Z,18.37
2017-12-20T02:38:31.773Z,18.30
2017-12-20T02:39:05.388Z,17.87
2017-12-20T02:39:38.733Z,16.77
2017-12-20T02:40:11.747Z,22.13
2017-12-20T02:40:45.815Z,16.60
2017-12-20T02:41:18.810Z,17.98
2017-12-20T02:41:51.809Z,16.70
2017-12-20T02:42:25.183Z,17.27
2017-12-20T02:42:58.518Z,21.23
2017-12-20T02:43:31.536Z,18.27
2017-12-20T02:44:04.539Z,22.00
2017-12-20T02:44:37.550Z,19.60
2017-12-20T02:45:10.910Z,17.58
2017-12-20T02:45:45.006Z,20.37
2017-12-20T02:46:19.467Z,20.33
2017-12-20T02:46:52.803Z,21.58
2017-12-20T02:47:26.571Z,19.77
2017-12-20T02:47:59.662Z,19.98
2017-12-20T02:48:33.418Z,20.85
2017-12-20T02:49:06.764Z,16.55
2017-12-20T02:49:39.769Z,19.08
2017-12-20T02:50:12.785Z,20.62
2017-12-20T02:50:46.562Z,16.83
2017-12-20T02:51:19.595Z,19.02
2017-12-20T02:51:52.968Z,17.40
2017-12-20T02:52:26.309Z,19.92
2017-12-20T02:53:00.088Z,20.20
2017-12-20T02:53:33.423Z,23.05
2017-12-20T02:54:06.877Z,18.20
2017-12-20T02:54:40.646Z,25.98
2017-12-20T02:55:13.681Z,23.27
2017-12-20T02:55:46.720Z,21.52
2017-12-20T02:56:19.754Z,22.92
2017-12-20T02:56:52.754Z,19.45
2017-12-20T02:57:26.532Z,17.20
2017-12-20T02:57:59.939Z,17.98
2017-12-20T02:58:33.102Z,21.00
2017-12-20T02:59:06.438Z,23.98
2017-12-20T02:59:39.434Z,22.30
2017-12-20T03:00:12.461Z,20.95
2017-12-20T03:00:45.476Z,19.92
2017-12-20T03:01:18.485Z,20.55
2017-12-20T03:01:51.514Z,19.85
2017-12-20T03:02:24.519Z,18.92
2017-12-20T03:02:57.522Z,24.67
2017-12-20T03:03:31.308Z,18.65
2017-12-20T03:04:05.424Z,19.20
2017-12-20T03:04:38.765Z,20.08
2017-12-20T03:05:12.103Z,18.48
2017-12-20T03:05:45.108Z,18.87
2017-12-20T03:06:18.111Z,23.62
2017-12-20T03:06:51.943Z,17.40
2017-12-20T03:07:25.291Z,20.70
2017-12-20T03:07:59.060Z,28.00
2017-12-20T03:08:32.054Z,23.10
2017-12-20T03:09:06.156Z,23.48
2017-12-20T03:09:40.595Z,20.27
2017-12-20T03:10:13.606Z,19.02
2017-12-20T03:10:46.952Z,22.70
2017-12-20T03:11:20.494Z,18.30
2017-12-20T03:11:53.551Z,19.83
2017-12-20T03:12:26.663Z,19.85
2017-12-20T03:13:00.497Z,23.55
2017-12-20T03:13:33.498Z,20.67
2017-12-20T03:14:06.504Z,23.73
2017-12-20T03:14:40.965Z,20.23
2017-12-20T03:15:13.966Z,23.27
2017-12-20T03:15:46.970Z,17.90
2017-12-20T03:16:20.661Z,21.27
2017-12-20T03:16:54.382Z,20.48
2017-12-20T03:17:28.050Z,21.80
2017-12-20T03:18:01.722Z,20.77
2017-12-20T03:18:35.386Z,17.77
2017-12-20T03:19:09.045Z,22.45
2017-12-20T03:19:42.714Z,20.20
2017-12-20T03:20:16.036Z,21.80
2017-12-20T03:20:49.698Z,17.30
2017-12-20T03:21:23.390Z,18.73
2017-12-20T03:21:56.771Z,22.13
2017-12-20T03:22:30.430Z,20.08
2017-12-20T03:23:04.107Z,21.80
2017-12-20T03:23:38.535Z,22.55
2017-12-20T03:24:12.207Z,21.73
2017-12-20T03:24:46.315Z,22.55
2017-12-20T03:25:19.988Z,21.83
2017-12-20T03:25:54.087Z,21.23
2017-12-20T03:26:28.195Z,16.48
2017-12-20T03:27:01.911Z,21.75
2017-12-20T03:27:35.278Z,21.80
2017-12-20T03:28:08.620Z,22.92
2017-12-20T03:28:41.954Z,26.90
2017-12-20T03:29:15.278Z,17.20
2017-12-20T03:29:49.005Z,21.60
2017-12-20T03:30:22.799Z,21.87
2017-12-20T03:30:56.462Z,21.70
2017-12-20T03:31:30.910Z,21.37
2017-12-20T03:32:04.515Z,21.08
2017-12-20T03:32:38.177Z,21.95
2017-12-20T03:33:11.864Z,21.30
2017-12-20T03:33:45.533Z,18.12
2017-12-20T03:34:19.968Z,19.02
2017-12-20T03:34:53.741Z,22.30
2017-12-20T03:35:28.193Z,22.25
2017-12-20T03:36:01.188Z,17.83
2017-12-20T03:36:34.854Z,19.83
2017-12-20T03:37:08.559Z,20.30
2017-12-20T03:37:42.226Z,20.83
2017-12-20T03:38:15.899Z,23.77
2017-12-20T03:38:49.571Z,20.98
2017-12-20T03:39:24.066Z,24.60
2017-12-20T03:39:57.735Z,18.17
2017-12-20T03:40:31.415Z,16.65
2017-12-20T03:41:05.087Z,20.62
2017-12-20T03:41:38.745Z,21.50
2017-12-20T03:42:13.199Z,19.40
2017-12-20T03:42:46.862Z,26.83
2017-12-20T03:43:20.536Z,22.17
2017-12-20T03:43:54.219Z,21.60
2017-12-20T03:44:28.327Z,19.67
2017-12-20T03:45:02.844Z,28.33
2017-12-20T03:45:36.617Z,22.33
2017-12-20T03:46:11.035Z,23.98
2017-12-20T03:46:44.383Z,22.13
2017-12-20T03:47:18.080Z,19.40
2017-12-20T03:47:52.506Z,22.40
2017-12-20T03:48:26.169Z,23.85
2017-12-20T03:48:59.954Z,18.75
2017-12-20T03:49:34.078Z,19.33
2017-12-20T03:50:08.189Z,18.05
2017-12-20T03:50:42.313Z,20.67
2017-12-20T03:51:15.318Z,20.20
2017-12-20T03:51:48.332Z,20.27
2017-12-20T03:52:22.129Z,24.50
2017-12-20T03:52:56.234Z,20.12
2017-12-20T03:53:29.233Z,23.05
2017-12-20T03:54:02.580Z,24.30
2017-12-20T03:54:36.382Z,19.02
2017-12-20T03:55:09.382Z,23.45
2017-12-20T03:55:42.388Z,20.75
2017-12-20T03:56:15.391Z,23.87
2017-12-20T03:56:49.827Z,19.48
2017-12-20T03:57:23.521Z,20.60
2017-12-20T03:57:57.189Z,20.98
2017-12-20T03:58:30.912Z,21.35
2017-12-20T03:59:04.593Z,23.38
2017-12-20T03:59:38.262Z,20.80
2017-12-20T04:00:11.925Z,21.75
2017-12-20T04:00:45.596Z,23.83
2017-12-20T04:01:19.263Z,17.12
2017-12-20T04:01:52.624Z,21.25
2017-12-20T04:02:26.323Z,19.87
2017-12-20T04:02:59.997Z,22.92
2017-12-20T04:03:33.330Z,22.75
2017-12-20T04:04:07.014Z,20.20
2017-12-20T04:04:40.686Z,21.67
2017-12-20T04:05:14.069Z,19.15
2017-12-20T04:05:47.741Z,23.50
2017-12-20T04:06:21.410Z,20.12
2017-12-20T04:06:55.090Z,20.02
2017-12-20T04:07:28.787Z,20.95
2017-12-20T04:08:03.227Z,20.37
2017-12-20T04:08:36.885Z,19.62
2017-12-20T04:09:10.230Z,22.33
2017-12-20T04:09:43.883Z,23.73
2017-12-20T04:10:17.566Z,20.35
2017-12-20T04:10:51.233Z,22.35
2017-12-20T04:11:25.674Z,25.05
2017-12-20T04:11:59.336Z,17.80
2017-12-20T04:12:33.023Z,26.20
2017-12-20T04:13:07.489Z,21.27
2017-12-20T04:13:41.163Z,19.45
2017-12-20T04:14:14.846Z,20.98
2017-12-20T04:14:48.524Z,22.13
2017-12-20T04:15:22.216Z,22.02
2017-12-20T04:15:55.894Z,21.12
2017-12-20T04:16:29.562Z,22.52
2017-12-20T04:17:03.999Z,23.33
2017-12-20T04:17:37.697Z,25.92
2017-12-20T04:18:10.844Z,21.77
2017-12-20T04:18:44.519Z,17.33
2017-12-20T04:19:18.950Z,20.02
2017-12-20T04:19:52.635Z,22.75
2017-12-20T04:20:26.305Z,27.05
2017-12-20T04:21:00.775Z,23.95
2017-12-20T04:21:34.451Z,18.87
2017-12-20T04:22:08.119Z,27.17
2017-12-20T04:22:41.840Z,21.95
2017-12-20T04:23:15.508Z,18.73
2017-12-20T04:23:49.175Z,22.58
2017-12-20T04:24:22.853Z,18.55
2017-12-20T04:24:57.310Z,21.92
2017-12-20T04:25:32.780Z,20.02
2017-12-20T04:26:07.232Z,21.42
2017-12-20T04:26:40.890Z,18.58
2017-12-20T04:27:15.379Z,20.27
2017-12-20T04:27:49.073Z,21.70
2017-12-20T04:28:22.740Z,25.83
2017-12-20T04:28:56.398Z,18.70
2017-12-20T04:29:30.072Z,19.80
2017-12-20T04:30:03.417Z,17.50
2017-12-20T04:30:37.081Z,21.98
2017-12-20T04:31:10.754Z,18.15
2017-12-20T04:31:45.540Z,22.90
2017-12-20T04:32:21.016Z,17.92
2017-12-20T04:32:54.774Z,22.70
2017-12-20T04:33:28.995Z,20.15
2017-12-20T04:34:02.658Z,21.15
2017-12-20T04:34:36.321Z,22.25
2017-12-20T04:35:09.991Z,23.70
2017-12-20T04:35:43.671Z,23.80
2017-12-20T04:36:17.335Z,24.92
2017-12-20T04:36:51.006Z,24.83
2017-12-20T04:37:25.625Z,19.90
2017-12-20T04:37:59.326Z,21.35
2017-12-20T04:38:33.009Z,21.70
2017-12-20T04:39:06.703Z,18.85
2017-12-20T04:39:40.381Z,22.37
2017-12-20T04:40:14.051Z,22.40
2017-12-20T04:40:48.490Z,22.15
2017-12-20T04:41:22.207Z,19.40
2017-12-20T04:41:55.883Z,25.02
2017-12-20T04:42:29.526Z,24.65
2017-12-20T04:43:03.991Z,20.62
2017-12-20T04:43:37.661Z,21.35
2017-12-20T04:44:11.441Z,24.50
2017-12-20T04:44:45.285Z,21.23
2017-12-20T04:45:18.956Z,25.95
2017-12-20T04:45:52.629Z,23.83
2017-12-20T04:46:26.296Z,24.35
2017-12-20T04:46:59.963Z,23.25
2017-12-20T04:47:34.716Z,20.90
2017-12-20T04:48:08.471Z,22.10
2017-12-20T04:48:42.932Z,22.80
2017-12-20T04:49:16.593Z,23.45
2017-12-20T04:49:50.263Z,22.73
2017-12-20T04:50:24.694Z,23.90
2017-12-20T04:50:58.387Z,19.40
2017-12-20T04:51:32.050Z,22.48
2017-12-20T04:52:06.491Z,20.27
2017-12-20T04:52:40.234Z,22.62
2017-12-20T04:53:14.201Z,21.55
2017-12-20T04:53:47.893Z,22.65
2017-12-20T04:54:21.551Z,27.10
2017-12-20T04:54:55.233Z,23.17
2017-12-20T04:55:28.962Z,26.02
2017-12-20T04:56:02.631Z,22.70
2017-12-20T04:56:36.291Z,22.60
2017-12-20T04:57:10.741Z,27.00
2017-12-20T04:57:44.424Z,22.45
2017-12-20T04:58:18.124Z,24.40
2017-12-20T04:58:51.791Z,20.58
2017-12-20T04:59:25.467Z,19.25
2017-12-20T04:59:59.135Z,22.77
2017-12-20T05:00:33.566Z,18.60
2017-12-20T05:01:07.258Z,19.60
2017-12-20T05:01:40.917Z,19.95
2017-12-20T05:02:15.378Z,19.23
2017-12-20T05:02:49.809Z,19.40
2017-12-20T05:03:23.498Z,17.92
2017-12-20T05:03:57.175Z,20.80
2017-12-20T05:04:30.853Z,19.10
2017-12-20T05:05:04.524Z,21.10
2017-12-20T05:05:38.202Z,22.42
2017-12-20T05:06:11.880Z,23.48
2017-12-20T05:06:46.891Z,22.50
2017-12-20T05:07:21.338Z,19.90
2017-12-20T05:07:55.012Z,18.85
2017-12-20T05:08:29.450Z,25.58
2017-12-20T05:09:03.154Z,26.65
2017-12-20T05:09:36.841Z,18.65
2017-12-20T05:10:10.518Z,19.35
2017-12-20T05:10:44.202Z,23.05
2017-12-20T05:11:17.903Z,21.25
2017-12-20T05:11:51.589Z,22.50
2017-12-20T05:12:26.147Z,21.75
2017-12-20T05:13:00.645Z,20.73
2017-12-20T05:13:34.360Z,22.05
2017-12-20T05:14:08.038Z,22.13
2017-12-20T05:14:42.498Z,18.83
2017-12-20T05:15:16.197Z,20.73
2017-12-20T05:15:49.894Z,21.20
2017-12-20T05:16:23.586Z,21.30
2017-12-20T05:16:57.254Z,21.65
2017-12-20T05:17:30.937Z,21.87
2017-12-20T05:18:04.603Z,21.20
2017-12-20T05:18:38.321Z,21.60
2017-12-20T05:19:12.007Z,20.00
2017-12-20T05:19:45.677Z,23.08
2017-12-20T05:20:19.352Z,20.12
2017-12-20T05:20:53.058Z,22.08
2017-12-20T05:21:26.723Z,18.92
2017-12-20T05:22:01.185Z,21.33
2017-12-20T05:22:34.847Z,21.73
2017-12-20T05:23:08.518Z,22.98
2017-12-20T05:23:42.983Z,22.62
2017-12-20T05:24:16.663Z,18.25
2017-12-20T05:24:51.071Z,20.30
2017-12-20T05:25:24.746Z,22.65
2017-12-20T05:25:58.398Z,26.25
2017-12-20T05:26:32.836Z,20.27
2017-12-20T05:27:06.504Z,20.20
2017-12-20T05:27:40.169Z,21.42
2017-12-20T05:28:14.614Z,20.62
2017-12-20T05:28:48.297Z,24.35
2017-12-20T05:29:21.960Z,18.92
2017-12-20T05:29:56.499Z,19.25
2017-12-20T05:30:30.170Z,19.67
2017-12-20T05:31:04.990Z,19.98
2017-12-20T05:31:39.427Z,20.60
2017-12-20T05:32:13.098Z,20.00
2017-12-20T05:32:46.797Z,21.17
2017-12-20T05:33:20.453Z,19.20
2017-12-20T05:33:54.887Z,18.42
2017-12-20T05:34:28.557Z,22.50
2017-12-20T05:35:02.992Z,21.90
2017-12-20T05:35:36.657Z,18.80
2017-12-20T05:36:11.473Z,22.50
2017-12-20T05:36:45.906Z,22.15
2017-12-20T05:37:19.570Z,19.35
2017-12-20T05:37:54.009Z,19.33
2017-12-20T05:38:27.669Z,23.12
2017-12-20T05:39:02.101Z,21.65
2017-12-20T05:39:35.841Z,18.40
2017-12-20T05:40:09.520Z,21.08
2017-12-20T05:40:43.185Z,19.77
2017-12-20T05:41:16.543Z,18.73
2017-12-20T05:41:50.233Z,23.27
2017-12-20T05:42:23.927Z,20.37
2017-12-20T05:42:57.602Z,20.48
2017-12-20T05:43:31.270Z,18.45
2017-12-20T05:44:05.694Z,18.83
2017-12-20T05:44:40.153Z,21.77
2017-12-20T05:45:13.822Z,18.87
2017-12-20T05:45:47.494Z,19.23
2017-12-20T05:46:21.576Z,20.00
2017-12-20T05:46:56.010Z,19.80
2017-12-20T05:47:29.690Z,17.58
2017-12-20T05:48:03.368Z,24.37
2017-12-20T05:48:37.036Z,18.25
2017-12-20T05:49:11.481Z,18.10
2017-12-20T05:49:45.155Z,17.73
2017-12-20T05:50:18.834Z,18.33
2017-12-20T05:50:53.286Z,18.37
2017-12-20T05:51:27.355Z,19.05
2017-12-20T05:52:01.045Z,20.55
2017-12-20T05:52:34.847Z,18.98
2017-12-20T05:53:08.542Z,19.83
2017-12-20T05:53:42.213Z,21.05
2017-12-20T05:54:15.999Z,21.67
2017-12-20T05:54:51.367Z,18.95
2017-12-20T05:55:25.020Z,24.77
2017-12-20T05:55:59.458Z,20.95
2017-12-20T05:56:33.434Z,17.10
2017-12-20T05:57:07.169Z,17.40
2017-12-20T05:57:40.838Z,20.05
2017-12-20T05:58:14.561Z,18.33
2017-12-20T05:58:48.234Z,20.17
2017-12-20T05:59:21.911Z,22.58
2017-12-20T05:59:55.574Z,23.08
2017-12-20T06:00:29.250Z,19.35
2017-12-20T06:01:03.697Z,22.13
2017-12-20T06:01:38.064Z,19.00
2017-12-20T06:02:12.497Z,20.65
2017-12-20T06:02:46.162Z,20.67
2017-12-20T06:03:20.619Z,17.10
2017-12-20T06:03:54.290Z,17.02
2017-12-20T06:04:27.959Z,22.95
2017-12-20T06:05:01.732Z,23.02
2017-12-20T06:05:36.166Z,19.87
2017-12-20T06:06:09.841Z,19.10
2017-12-20T06:06:43.826Z,19.75
2017-12-20T06:07:18.251Z,15.80
2017-12-20T06:07:51.939Z,20.85
2017-12-20T06:08:25.630Z,18.30
2017-12-20T06:08:59.301Z,19.77
2017-12-20T06:09:33.787Z,17.92
2017-12-20T06:10:07.517Z,18.25
2017-12-20T06:10:41.222Z,18.60
2017-12-20T06:11:14.937Z,18.60
2017-12-20T06:11:49.009Z,19.20
2017-12-20T06:12:22.686Z,17.65
2017-12-20T06:12:56.361Z,18.17
2017-12-20T06:13:30.801Z,21.48
2017-12-20T06:14:04.475Z,18.55
2017-12-20T06:14:38.142Z,17.83
2017-12-20T06:15:12.663Z,18.87
2017-12-20T06:15:47.120Z,19.08
2017-12-20T06:16:20.780Z,19.25
2017-12-20T06:16:54.763Z,19.15
2017-12-20T06:17:28.443Z,19.05
2017-12-20T06:18:02.133Z,21.02
2017-12-20T06:18:36.571Z,24.77
2017-12-20T06:19:10.234Z,21.42
2017-12-20T06:19:44.666Z,22.87
2017-12-20T06:20:18.348Z,22.13
2017-12-20T06:20:52.015Z,18.98
2017-12-20T06:21:26.469Z,24.30
2017-12-20T06:22:00.632Z,20.50
2017-12-20T06:22:34.307Z,21.55
2017-12-20T06:23:08.816Z,17.20
2017-12-20T06:23:43.251Z,20.45
2017-12-20T06:24:16.938Z,19.87
2017-12-20T06:24:50.601Z,22.58
2017-12-20T06:25:25.080Z,17.17
2017-12-20T06:25:58.742Z,18.55
2017-12-20T06:26:32.491Z,22.50
2017-12-20T06:27:07.308Z,20.02
2017-12-20T06:27:41.747Z,20.52
2017-12-20T06:28:15.431Z,22.17
2017-12-20T06:28:49.107Z,16.50
2017-12-20T06:29:22.779Z,22.08
2017-12-20T06:29:57.217Z,21.92
2017-12-20T06:30:30.882Z,17.83
2017-12-20T06:31:05.320Z,23.42
2017-12-20T06:31:38.986Z,20.85
2017-12-20T06:32:12.986Z,18.98
2017-12-20T06:32:47.432Z,23.10
2017-12-20T06:33:21.140Z,19.25
2017-12-20T06:33:54.807Z,18.20
2017-12-20T06:34:28.484Z,20.58
2017-12-20T06:35:02.165Z,20.15
2017-12-20T06:35:35.827Z,17.90
2017-12-20T06:36:10.285Z,20.05
2017-12-20T06:36:43.631Z,22.23
2017-12-20T06:37:18.486Z,20.35
2017-12-20T06:37:52.291Z,25.33
2017-12-20T06:38:25.964Z,23.15
2017-12-20T06:39:00.746Z,21.33
2017-12-20T06:39:35.179Z,21.83
2017-12-20T06:40:08.852Z,20.73
2017-12-20T06:40:42.522Z,21.55
2017-12-20T06:41:16.972Z,22.15
2017-12-20T06:41:50.652Z,24.42
2017-12-20T06:42:24.718Z,21.02
2017-12-20T06:42:59.158Z,21.45
2017-12-20T06:43:32.890Z,19.60
2017-12-20T06:44:06.594Z,22.58
2017-12-20T06:44:40.298Z,21.90
2017-12-20T06:45:14.162Z,18.70
2017-12-20T06:45:47.820Z,19.60
2017-12-20T06:46:22.192Z,22.33
2017-12-20T06:46:56.651Z,20.50
2017-12-20T06:47:30.352Z,18.90
2017-12-20T06:48:04.023Z,20.27
2017-12-20T06:48:38.157Z,19.30
2017-12-20T06:49:11.872Z,23.62
2017-12-20T06:49:46.337Z,22.95
2017-12-20T06:50:20.053Z,20.00
2017-12-20T06:50:53.853Z,18.27
2017-12-20T06:51:28.354Z,19.87
2017-12-20T06:52:02.802Z,21.40
2017-12-20T06:52:36.760Z,20.15
2017-12-20T06:53:10.450Z,19.52
2017-12-20T06:53:44.895Z,21.20
2017-12-20T06:54:18.565Z,25.95
2017-12-20T06:54:53.871Z,24.50
2017-12-20T06:55:27.994Z,22.15
2017-12-20T06:56:02.190Z,21.90
2017-12-20T06:56:36.046Z,23.08
2017-12-20T06:57:09.721Z,24.55
2017-12-20T06:57:43.892Z,26.83
2017-12-20T06:58:17.937Z,23.30
2017-12-20T06:58:51.698Z,24.87
2017-12-20T06:59:26.186Z,25.15
2017-12-20T06:59:59.906Z,21.33
2017-12-20T07:00:34.743Z,22.15
2017-12-20T07:01:09.223Z,25.33
2017-12-20T07:01:43.983Z,20.85
2017-12-20T07:02:18.608Z,22.08
2017-12-20T07:02:52.803Z,19.95
2017-12-20T07:03:27.261Z,25.27
2017-12-20T07:04:00.947Z,20.70
2017-12-20T07:04:34.618Z,22.80
2017-12-20T07:05:08.302Z,20.27
2017-12-20T07:05:41.989Z,21.80
2017-12-20T07:06:15.669Z,20.25
2017-12-20T07:06:49.353Z,22.45
2017-12-20T07:07:25.119Z,19.17
2017-12-20T07:07:59.051Z,20.80
2017-12-20T07:08:32.758Z,23.00
2017-12-20T07:09:06.102Z,21.33
2017-12-20T07:09:39.788Z,24.67
2017-12-20T07:10:13.482Z,27.25
2017-12-20T07:10:47.186Z,25.95
2017-12-20T07:11:20.879Z,24.20
2017-12-20T07:11:54.547Z,22.87
2017-12-20T07:12:28.234Z,26.70
2017-12-20T07:13:02.026Z,35.35
2017-12-20T07:13:35.698Z,32.25
2017-12-20T07:14:09.378Z,35.90
2017-12-20T07:14:43.823Z,34.30
2017-12-20T07:15:17.570Z,34.45
2017-12-20T07:15:52.027Z,38.90
2017-12-20T07:16:25.682Z,35.63